VMMCZSHC

Guest
Details From VMMC - Macau Intl
To ZSHC - XIAOSHAN
Flight Number -
Tags decoded
Created
Modified
Stats Distance 693 nm / 1,283 km
Max Altitude 0 ft / 0 m
Waypoints 4
Social Downloads 0
Likes 0
Share VATSIM

Download

Looking for another format? Having issues loading an existing format? Contact us
Advertisement - Login to hide

Notes

Requested: VMMC SOUSA V1 DOTMI UGAGO ZSHC Unmatched points: UGAGO

Route

VMMC SOUSA DOTMI ZSHC

ID Type Via Altitude Latitude Longitude Leg Dist Tot Dist Heading (true) Name
O VMMC APT - 0 ft / 0 m 22.14867˚ 113.59141˚ - 0 nm - Macau Intl
SOUSA FIX - 0 ft / 0 m 22.01956˚ 116.19106˚ 144 nm 144 nm 93° / 94° -
DOTMI FIX - 0 ft / 0 m 22.71833˚ 116.16833˚ 41 nm 186 nm 358° / 358° -
O ZSHC APT - 0 ft / 0 m 30.22950˚ 120.43445˚ 505 nm 692 nm 26° / 28° XIAOSHAN

Altitude Profile

Advertisement - Login to hide

Weather


0- 5 10 15 20 25 30 35+ Temperature / ° C

Clouds and Precipitation
Forecast for 2017-12-12 12:00 UTC. Updated 2 hours ago

Ground ~20,000 ft ~40,000 ft Winds

VMMC

Details ICAO VMMC (MFM)
Name Macau Intl
Region Macau
Timezone Unknown (UTC+0.0)
Stats Elevation 20 ft / 6 m (AMSL)
Location 22.148675° 113.591412°
Runways 1
Magnetic Variation 2.744° W

METAR

VMMC 121030Z 10006KT CAVOK 19/14 Q1017 NOSIG

Decode

TAF

TAF VMMC 120500Z 1206/1312 02010KT 8000 FEW030 BECMG 1209/1212 09012KT

Decode

Departure Runways

ID Width Length Bearing (true) Bearing (mag) Surface Threshold Offset Overrun Length
16 148 ft / 45 m 10,584 ft / 3,226 m 160.29° 163.03° Concrete 1,195 ft / 364 m 155 ft / 47 m
34 148 ft / 45 m 10,584 ft / 3,226 m 340.29° 343.03° Concrete 1,215 ft / 370 m 185 ft / 56 m

ZSHC

Details ICAO ZSHC (HGH)
Name XIAOSHAN
Region China
Timezone Asia/Shanghai (UTC+8.0)
Stats Elevation 23 ft / 7 m (AMSL)
Location 30.229504° 120.434453°
Runways 1
Magnetic Variation 5.532° W

METAR

ZSHC 121030Z 10006MPS 9999 BKN040 09/03 Q1028 NOSIG

Decode

TAF

Not found

Destination Runways

ID Width Length Bearing (true) Bearing (mag) Surface Threshold Offset Overrun Length
07 148 ft / 45 m 11,803 ft / 3,598 m 62.82° 68.35° Concrete 0 ft / 0 m 200 ft / 61 m
25 148 ft / 45 m 11,803 ft / 3,598 m 242.84° 248.37° Concrete 0 ft / 0 m 200 ft / 61 m

Approach Navaids

Runway Type Ident Frequency Range Bearing (true) Bearing (mag) Slope Elevation
07 Localiser IXX 109.90 MHz 18 nm / 33 km 61.92° 67.45° - 23 ft / 7 m (AMSL)
07 Glidescope IXX 109.90 MHz 10 nm / 19 km 62.83° 68.36° 3.00° 23 ft / 7 m (AMSL)
25 Localiser IDD 108.50 MHz 18 nm / 33 km 242.20° 247.73° - 23 ft / 7 m (AMSL)
25 Glidescope IDD 108.50 MHz 10 nm / 19 km 242.83° 248.36° 3.00° 23 ft / 7 m (AMSL)

Popular Alternatives